Time;durP1;ratioP1;P1;durP2;ratioP2;P2;SDS_P1;SDS_P2;PMS_P1;PMS_P2;Temp;Humidity;BMP_temperature;BMP_pressure;BME280_temperature;BME280_humidity;BME280_pressure;Samples;Min_cycle;Max_cycle;Signal;HPM_P1;HPM_P2
2023/04/14 00:03:11;;;;;;;91.10;39.30;;;;;;;9.50;74.36;98916.63;220147;1257;140635;-68
2023/04/14 00:08:15;;;;;;;49.00;25.40;;;;;;;9.49;74.61;98917.83;220074;1260;140482;-70
2023/04/14 00:13:18;;;;;;;31.50;21.00;;;;;;;9.46;74.51;98912.98;217863;1258;141098;-68
2023/04/14 00:18:22;;;;;;;38.60;21.50;;;;;;;9.42;74.77;98922.93;218185;1257;140276;-68
2023/04/14 00:23:27;;;;;;;32.00;18.90;;;;;;;9.28;74.56;98922.52;218750;1257;141179;-68
2023/04/14 00:28:30;;;;;;;35.40;22.50;;;;;;;9.09;74.72;98922.48;218132;1260;140758;-69
2023/04/14 00:33:33;;;;;;;23.30;15.30;;;;;;;9.05;75.40;98922.11;217608;1258;140407;-68
2023/04/14 00:38:37;;;;;;;25.50;17.40;;;;;;;8.94;75.46;98928.70;218874;1257;140235;-69
2023/04/14 00:43:41;;;;;;;26.70;17.30;;;;;;;8.84;75.85;98924.16;218155;1259;140522;-68
2023/04/14 00:48:44;;;;;;;26.10;18.60;;;;;;;8.80;76.23;98921.10;217581;1261;141156;-68
2023/04/14 00:53:48;;;;;;;23.80;15.80;;;;;;;8.75;76.32;98913.33;217734;1262;139794;-68
2023/04/14 00:58:52;;;;;;;29.80;19.60;;;;;;;8.69;76.28;98911.94;217341;1260;140155;-69
2023/04/14 01:03:57;;;;;;;28.80;17.70;;;;;;;8.63;76.56;98901.06;217751;1262;139784;-68
2023/04/14 01:09:01;;;;;;;30.00;19.00;;;;;;;8.61;76.70;98902.36;218078;1258;139939;-68
2023/04/14 01:14:27;;;;;;;27.90;18.50;;;;;;;8.60;76.96;98899.15;217607;1261;140016;-68
2023/04/14 01:19:49;;;;;;;28.40;17.20;;;;;;;8.59;77.24;98889.41;217868;1262;140192;-69
2023/04/14 01:25:22;;;;;;;24.70;18.40;;;;;;;8.54;77.22;98886.17;217958;1262;139884;-68
2023/04/14 01:31:01;;;;;;;30.20;18.50;;;;;;;8.52;77.68;98885.77;218762;1261;140725;-69
2023/04/14 01:36:12;;;;;;;26.30;18.60;;;;;;;8.48;77.62;98880.91;217914;1260;139540;-68
2023/04/14 01:41:18;;;;;;;26.30;19.10;;;;;;;8.45;77.82;98880.48;218282;1260;151266;-68
2023/04/14 01:46:20;;;;;;;31.30;20.30;;;;;;;8.41;77.86;98883.84;218199;1260;141068;-68
2023/04/14 01:51:25;;;;;;;30.40;20.70;;;;;;;8.38;78.00;98877.77;217892;1257;139856;-68
2023/04/14 01:56:29;;;;;;;29.80;19.70;;;;;;;8.35;78.01;98880.59;218578;1258;141080;-69
2023/04/14 02:01:33;;;;;;;30.60;20.80;;;;;;;8.32;78.43;98877.83;219929;1262;139963;-68
2023/04/14 02:06:38;;;;;;;68.80;31.10;;;;;;;8.30;78.34;98880.80;219655;1257;140551;-69
2023/04/14 02:11:42;;;;;;;62.20;28.10;;;;;;;8.31;78.52;98881.35;219363;1257;140869;-68
2023/04/14 02:16:47;;;;;;;68.10;31.90;;;;;;;8.33;78.51;98883.62;219947;1258;140989;-69
2023/04/14 02:21:52;;;;;;;73.00;33.90;;;;;;;8.34;78.63;98888.55;217883;1260;208285;-69
2023/04/14 02:27:13;;;;;;;62.50;30.10;;;;;;;8.37;78.91;98884.40;218711;1262;140638;-68
2023/04/14 02:32:24;;;;;;;58.60;28.90;;;;;;;8.34;78.68;98877.50;218633;1260;141167;-68
2023/04/14 02:37:35;;;;;;;34.30;23.00;;;;;;;8.33;79.20;98872.27;217629;1257;141031;-68
2023/04/14 02:42:42;;;;;;;34.80;22.90;;;;;;;8.33;79.50;98867.61;218110;1261;140072;-68
2023/04/14 02:47:51;;;;;;;34.80;21.40;;;;;;;8.35;79.57;98872.30;217757;1260;139803;-68
2023/04/14 02:52:57;;;;;;;30.60;21.50;;;;;;;8.33;79.35;98871.16;218223;1262;140366;-68
2023/04/14 02:58:01;;;;;;;40.60;24.70;;;;;;;8.30;79.68;98874.38;217509;1262;140330;-67
2023/04/14 03:03:05;;;;;;;36.30;22.80;;;;;;;8.27;79.51;98884.95;218000;1262;139761;-67
2023/04/14 03:08:16;;;;;;;33.00;23.50;;;;;;;8.26;80.05;98889.59;217739;1257;140458;-67
2023/04/14 03:13:21;;;;;;;32.60;22.40;;;;;;;8.26;80.13;98892.58;217693;1258;140438;-68
2023/04/14 03:18:26;;;;;;;44.80;25.90;;;;;;;8.26;80.04;98891.25;218131;1258;139688;-68
2023/04/14 03:23:32;;;;;;;43.20;23.80;;;;;;;8.26;80.19;98893.38;217477;1262;140527;-68
2023/04/14 03:28:37;;;;;;;39.20;23.80;;;;;;;8.24;80.67;98894.84;217456;1262;139927;-68
2023/04/14 03:33:45;;;;;;;47.30;25.60;;;;;;;8.22;80.36;98894.55;217443;1262;141749;-68
2023/04/14 03:38:50;;;;;;;55.10;32.20;;;;;;;8.21;80.18;98884.43;217399;1262;139841;-66
2023/04/14 03:43:55;;;;;;;34.00;24.00;;;;;;;8.20;80.50;98866.52;217805;1262;140033;-68
2023/04/14 03:49:02;;;;;;;32.40;22.90;;;;;;;8.19;80.68;98859.77;219292;1262;139503;-68
2023/04/14 03:54:08;;;;;;;36.40;24.80;;;;;;;8.17;80.58;98862.27;218117;1257;140648;-68
2023/04/14 03:59:15;;;;;;;28.70;19.80;;;;;;;8.12;80.57;98866.13;217762;1258;139716;-68
2023/04/14 04:04:20;;;;;;;;;;;;;;;8.10;80.50;98868.27;220114;1259;140559;-69
2023/04/14 04:09:25;;;;;;;29.30;23.50;;;;;;;8.12;80.92;98866.58;219978;1262;125500;-69
2023/04/14 04:14:32;;;;;;;28.00;18.00;;;;;;;8.19;81.00;98865.98;217410;1262;140727;-69
2023/04/14 04:19:38;;;;;;;33.60;22.40;;;;;;;8.23;80.74;98862.01;217244;1262;141667;-70
2023/04/14 04:24:43;;;;;;;32.00;22.20;;;;;;;8.26;80.87;98854.88;218867;1262;140564;-69
2023/04/14 04:29:47;;;;;;;32.30;23.70;;;;;;;8.32;80.29;98856.31;217301;1258;140664;-75
2023/04/14 04:34:50;;;;;;;32.90;22.30;;;;;;;8.37;80.44;98856.19;217507;1259;139921;-76
2023/04/14 04:39:56;;;;;;;40.10;22.90;;;;;;;8.40;80.42;98853.86;217813;1262;140878;-68
2023/04/14 04:44:59;;;;;;;30.70;18.90;;;;;;;8.45;79.82;98855.00;218205;1257;140046;-69
2023/04/14 04:50:02;;;;;;;29.40;20.90;;;;;;;8.56;79.76;98861.17;218885;1258;140303;-70
2023/04/14 04:55:06;;;;;;;35.50;17.10;;;;;;;8.71;79.57;98864.89;217274;1258;140043;-69
2023/04/14 05:00:09;;;;;;;29.90;15.40;;;;;;;8.82;78.92;98870.70;217200;1259;139886;-71
2023/04/14 05:05:11;;;;;;;31.20;18.40;;;;;;;8.94;78.48;98870.37;217361;1263;139797;-70
2023/04/14 05:10:14;;;;;;;31.40;17.80;;;;;;;9.05;78.41;98876.07;217238;1262;141509;-71
2023/04/14 05:15:17;;;;;;;23.90;16.40;;;;;;;9.18;78.19;98878.78;217951;1258;139664;-70
2023/04/14 05:20:21;;;;;;;24.00;14.30;;;;;;;9.34;77.90;98882.76;217839;1260;139593;-70
2023/04/14 05:25:24;;;;;;;26.60;17.30;;;;;;;9.49;77.68;98893.37;217152;1262;140902;-68
2023/04/14 05:30:26;;;;;;;31.90;17.30;;;;;;;9.59;77.44;98900.19;217152;1259;140283;-68
2023/04/14 05:35:29;;;;;;;22.40;14.70;;;;;;;9.68;77.24;98904.08;217493;1260;141085;-70
2023/04/14 05:40:33;;;;;;;29.80;15.40;;;;;;;9.74;77.00;98902.23;217060;1258;140151;-69
2023/04/14 05:45:36;;;;;;;27.00;15.30;;;;;;;9.81;76.81;98898.67;217190;1263;140367;-70
2023/04/14 05:50:40;;;;;;;24.80;21.20;;;;;;;9.90;76.92;98900.31;217398;1263;140226;-70
2023/04/14 05:55:45;;;;;;;33.70;19.80;;;;;;;9.96;76.84;98899.11;218218;1257;141346;-71
2023/04/14 06:00:49;;;;;;;27.80;17.60;;;;;;;10.05;76.71;98903.31;218609;1261;140235;-71
2023/04/14 06:05:53;;;;;;;27.50;16.10;;;;;;;10.19;76.65;98900.50;220008;1257;140538;-68
2023/04/14 06:10:55;;;;;;;28.50;16.20;;;;;;;10.44;76.37;98898.83;217074;1261;209427;-69
2023/04/14 06:15:59;;;;;;;23.70;14.50;;;;;;;10.76;76.15;98894.55;219403;1258;141237;-69
2023/04/14 06:21:02;;;;;;;18.60;12.40;;;;;;;11.20;75.84;98891.77;220094;1257;140772;-67
2023/04/14 06:26:05;;;;;;;22.00;14.80;;;;;;;11.72;75.33;98882.82;219620;1258;140819;-67
2023/04/14 06:31:09;;;;;;;18.50;12.40;;;;;;;12.18;74.51;98878.96;218480;1258;140631;-68
2023/04/14 06:36:15;;;;;;;21.50;13.50;;;;;;;12.51;73.94;98871.50;217255;1257;141215;-67
2023/04/14 06:41:19;;;;;;;18.70;11.90;;;;;;;12.76;73.20;98873.89;218157;1258;140151;-67
2023/04/14 06:46:23;;;;;;;13.20;11.40;;;;;;;13.17;72.73;98873.54;217870;1257;140534;-67
2023/04/14 06:51:31;;;;;;;13.90;10.70;;;;;;;13.74;72.27;98869.56;217226;1261;140053;-67
2023/04/14 06:56:36;;;;;;;16.80;12.20;;;;;;;14.37;71.16;98875.16;217191;1260;141846;-67
2023/04/14 07:01:40;;;;;;;19.50;11.40;;;;;;;14.89;69.94;98859.70;217284;1257;140057;-69
2023/04/14 07:06:44;;;;;;;20.50;10.40;;;;;;;15.11;69.07;98863.32;217277;1263;139617;-69
2023/04/14 07:11:47;;;;;;;14.20;11.20;;;;;;;15.21;68.39;98864.94;218198;1258;139609;-69
2023/04/14 07:16:52;;;;;;;12.90;10.50;;;;;;;15.42;67.58;98860.48;217327;1258;140378;-67
2023/04/14 07:21:56;;;;;;;16.80;12.20;;;;;;;16.08;67.03;98862.41;218178;1257;140048;-68
2023/04/14 07:26:59;;;;;;;11.50;9.10;;;;;;;16.69;66.00;98860.85;217417;1262;139636;-68
2023/04/14 07:32:05;;;;;;;16.90;11.10;;;;;;;16.94;65.04;98864.39;217460;1262;209492;-67
2023/04/14 07:37:10;;;;;;;13.70;10.90;;;;;;;16.93;64.01;98863.29;217472;1257;139405;-67
2023/04/14 07:42:14;;;;;;;15.70;10.40;;;;;;;16.88;63.23;98866.59;217360;1257;139464;-66
2023/04/14 07:47:17;;;;;;;10.70;8.60;;;;;;;16.86;62.98;98860.17;217312;1257;140540;-68
2023/04/14 07:52:21;;;;;;;11.90;8.70;;;;;;;17.07;62.65;98852.97;217339;1257;139046;-67
2023/04/14 07:57:25;;;;;;;15.30;9.50;;;;;;;17.07;61.79;98852.85;217404;1262;139588;-69
2023/04/14 08:02:28;;;;;;;14.00;10.90;;;;;;;17.07;61.78;98848.70;217219;1258;140098;-69
2023/04/14 08:07:33;;;;;;;9.00;8.10;;;;;;;17.05;61.56;98850.73;219748;1257;139230;-70
2023/04/14 08:12:36;;;;;;;9.60;8.20;;;;;;;17.03;61.59;98844.96;218343;1258;139913;-69
2023/04/14 08:17:39;;;;;;;8.50;7.70;;;;;;;17.14;61.39;98838.11;217362;1262;140169;-70
2023/04/14 08:22:43;;;;;;;8.90;6.40;;;;;;;17.29;61.12;98828.27;217456;1261;139975;-69
2023/04/14 08:27:45;;;;;;;7.50;6.70;;;;;;;17.41;60.17;98823.48;217454;1262;139258;-69
2023/04/14 08:32:48;;;;;;;9.40;5.90;;;;;;;17.46;59.06;98823.02;217124;1257;139969;-70
2023/04/14 08:37:50;;;;;;;5.80;5.20;;;;;;;17.66;59.39;98822.77;217410;1260;139664;-67
2023/04/14 08:42:53;;;;;;;7.40;5.40;;;;;;;17.62;57.71;98826.89;217382;1257;139871;-68
2023/04/14 08:47:58;;;;;;;6.70;5.20;;;;;;;17.58;57.53;98824.83;218091;1258;139631;-67
2023/04/14 08:53:05;;;;;;;7.20;4.60;;;;;;;17.70;56.96;98828.56;217614;1257;139387;-68
2023/04/14 08:58:09;;;;;;;7.20;5.10;;;;;;;17.97;56.41;98829.04;217463;1257;139728;-68
2023/04/14 09:03:13;;;;;;;7.00;5.90;;;;;;;18.30;55.79;98830.15;217396;1262;139953;-66
2023/04/14 09:08:18;;;;;;;5.80;4.90;;;;;;;18.43;54.91;98828.80;217377;1260;140108;-68
2023/04/14 09:13:22;;;;;;;6.10;4.60;;;;;;;18.52;54.59;98834.30;217527;1257;140456;-67
2023/04/14 09:18:27;;;;;;;6.80;5.80;;;;;;;18.66;53.98;98836.70;217305;1262;139489;-67
2023/04/14 09:23:31;;;;;;;7.20;5.00;;;;;;;18.66;53.44;98831.91;217345;1258;139478;-68
2023/04/14 09:28:35;;;;;;;8.90;5.50;;;;;;;18.64;53.42;98831.84;217673;1258;139579;-71
2023/04/14 09:33:43;;;;;;;7.40;6.70;;;;;;;18.73;52.59;98826.64;218373;1257;139522;-70
2023/04/14 09:38:49;;;;;;;6.50;5.90;;;;;;;18.71;52.94;98818.81;217479;1257;139209;-70
2023/04/14 09:43:53;;;;;;;7.80;5.70;;;;;;;18.74;52.53;98813.98;217792;1257;140319;-70
2023/04/14 09:48:56;;;;;;;7.50;4.20;;;;;;;18.97;52.46;98815.54;217686;1257;149685;-69
2023/04/14 09:54:03;;;;;;;8.50;5.90;;;;;;;19.20;52.36;98815.28;217840;1257;141298;-70
2023/04/14 09:59:09;;;;;;;8.10;5.80;;;;;;;19.17;51.76;98817.46;220280;1257;140285;-70
2023/04/14 10:04:23;;;;;;;9.50;5.70;;;;;;;19.19;51.43;98814.06;218521;1257;139511;-69
2023/04/14 10:09:34;;;;;;;5.20;4.60;;;;;;;19.42;51.24;98814.48;217489;1257;139222;-70
2023/04/14 10:14:38;;;;;;;5.50;5.10;;;;;;;19.59;50.13;98809.45;218153;1259;140013;-74
2023/04/14 10:19:41;;;;;;;3.90;3.60;;;;;;;19.43;49.98;98807.09;217633;1257;139480;-73
2023/04/14 10:24:44;;;;;;;7.30;4.30;;;;;;;19.23;49.39;98807.14;217958;1260;139649;-72
2023/04/14 10:29:48;;;;;;;5.30;3.60;;;;;;;19.60;49.19;98795.85;217702;1257;139171;-71
2023/04/14 10:35:12;;;;;;;4.70;4.30;;;;;;;19.74;48.28;98793.73;217876;1257;138759;-72
2023/04/14 10:40:16;;;;;;;7.60;4.90;;;;;;;19.68;47.89;98800.54;217596;1257;140602;-71
2023/04/14 10:45:21;;;;;;;4.60;4.00;;;;;;;19.67;46.92;98796.89;217748;1257;140554;-71
2023/04/14 10:50:27;;;;;;;3.40;3.10;;;;;;;19.37;46.57;98787.80;217442;1257;139015;-68
2023/04/14 10:55:44;;;;;;;;;;;;;;;19.23;46.54;98794.59;217359;1259;138567;-70
2023/04/14 11:00:58;;;;;;;5.60;3.30;;;;;;;19.14;46.40;98782.58;217945;1258;127117;-73
2023/04/14 11:06:01;;;;;;;5.40;4.60;;;;;;;19.03;45.94;98776.02;217350;1258;139582;-74
2023/04/14 11:11:06;;;;;;;10.80;5.30;;;;;;;19.09;46.61;98775.92;217693;1257;139091;-74
2023/04/14 11:16:09;;;;;;;5.40;4.90;;;;;;;18.92;46.31;98771.74;217423;1257;139804;-77
2023/04/14 11:21:15;;;;;;;4.30;3.90;;;;;;;18.67;46.92;98765.80;217295;1257;139227;-73
2023/04/14 11:26:22;;;;;;;5.80;5.30;;;;;;;18.51;46.97;98766.15;217957;1259;139859;-71
2023/04/14 11:31:27;;;;;;;5.90;5.30;;;;;;;18.51;47.26;98761.33;217389;1259;138933;-70
2023/04/14 11:36:35;;;;;;;9.30;7.10;;;;;;;18.57;47.57;98756.41;218517;1259;140241;-66
2023/04/14 11:41:38;;;;;;;7.90;6.70;;;;;;;18.50;47.84;98759.31;218473;1257;139982;-67
2023/04/14 11:46:40;;;;;;;11.00;8.40;;;;;;;18.57;48.20;98764.76;218545;1257;698636;-69
2023/04/14 11:51:45;;;;;;;13.50;7.50;;;;;;;18.72;48.61;98759.56;218606;1258;140178;-68
2023/04/14 11:56:48;;;;;;;8.60;7.50;;;;;;;18.63;48.45;98754.59;219659;1257;140402;-69
2023/04/14 12:01:51;;;;;;;10.40;8.20;;;;;;;18.53;48.40;98753.90;220290;1259;138962;-71
2023/04/14 12:06:55;;;;;;;18.90;7.20;;;;;;;18.35;48.44;98747.87;217750;1257;141627;-69
2023/04/14 12:11:58;;;;;;;8.00;6.70;;;;;;;18.21;48.52;98751.98;218404;1258;140897;-69
2023/04/14 12:17:01;;;;;;;7.50;6.40;;;;;;;18.16;48.78;98747.36;217534;1257;139197;-69
2023/04/14 12:22:06;;;;;;;8.80;6.70;;;;;;;18.13;48.57;98742.58;217820;1257;140666;-69
2023/04/14 12:27:11;;;;;;;10.10;6.50;;;;;;;18.06;48.56;98740.25;218380;1257;140145;-70
2023/04/14 12:32:14;;;;;;;9.20;6.40;;;;;;;18.22;48.66;98730.77;217726;1259;138799;-70
2023/04/14 12:37:25;;;;;;;8.00;6.30;;;;;;;18.32;48.55;98726.02;217772;1257;139317;-67
2023/04/14 12:42:48;;;;;;;11.50;7.60;;;;;;;18.38;48.40;98716.62;217505;1261;138816;-68
2023/04/14 12:47:55;;;;;;;6.70;6.10;;;;;;;18.26;48.37;98721.87;217244;1257;140457;-69
2023/04/14 12:53:00;;;;;;;13.80;6.50;;;;;;;18.14;48.06;98717.02;217407;1258;139989;-69
2023/04/14 12:58:04;;;;;;;9.00;6.10;;;;;;;18.15;48.18;98711.33;217442;1260;139310;-70
2023/04/14 13:03:08;;;;;;;9.10;7.60;;;;;;;18.37;48.30;98709.25;217578;1257;139319;-71
2023/04/14 13:08:13;;;;;;;7.60;6.60;;;;;;;18.50;48.39;98711.02;217771;1257;140610;-69
2023/04/14 13:13:16;;;;;;;12.10;9.20;;;;;;;18.28;48.63;98710.84;218162;1257;140175;-68
2023/04/14 13:18:19;;;;;;;8.20;7.00;;;;;;;18.04;48.48;98706.92;218043;1257;139052;-69
2023/04/14 13:23:22;;;;;;;6.80;5.90;;;;;;;17.92;49.21;98706.10;217915;1260;139150;-70
2023/04/14 13:28:25;;;;;;;7.30;6.60;;;;;;;17.98;49.04;98704.61;218746;1258;140512;-70
2023/04/14 13:33:29;;;;;;;6.90;6.20;;;;;;;18.21;49.45;98690.63;218365;1257;139243;-71
2023/04/14 13:38:33;;;;;;;10.20;6.70;;;;;;;18.58;48.90;98687.71;217955;1258;139517;-71
2023/04/14 13:43:37;;;;;;;6.80;6.30;;;;;;;18.69;48.83;98682.38;220160;1257;139404;-70
2023/04/14 13:48:43;;;;;;;8.20;7.40;;;;;;;18.65;48.33;98682.61;220275;1258;140349;-69
2023/04/14 13:53:46;;;;;;;8.80;7.20;;;;;;;18.43;48.26;98682.20;217398;1258;138914;-68
2023/04/14 13:58:53;;;;;;;6.90;6.10;;;;;;;18.25;48.62;98673.75;217267;1259;139971;-69
2023/04/14 14:03:57;;;;;;;8.40;7.40;;;;;;;18.10;49.02;98669.50;217159;1258;138945;-68
2023/04/14 14:09:05;;;;;;;8.90;7.10;;;;;;;18.01;49.00;98671.70;218915;1258;141074;-70
2023/04/14 14:14:13;;;;;;;9.70;8.30;;;;;;;17.93;49.31;98665.65;217632;1259;139358;-71
2023/04/14 14:19:20;;;;;;;9.10;8.20;;;;;;;17.89;49.62;98666.01;217757;1259;139650;-72
2023/04/14 14:24:23;;;;;;;8.60;7.80;;;;;;;17.82;49.94;98657.81;217624;1259;139241;-69
2023/04/14 14:29:26;;;;;;;12.00;8.10;;;;;;;17.79;50.19;98658.05;217266;1262;139136;-70
2023/04/14 14:34:30;;;;;;;11.90;7.40;;;;;;;17.74;50.42;98664.04;217476;1257;139756;-69
2023/04/14 14:39:33;;;;;;;11.40;8.30;;;;;;;17.69;50.48;98673.88;217406;1257;139490;-71
2023/04/14 14:44:37;;;;;;;11.10;7.50;;;;;;;17.52;50.82;98665.38;217525;1259;140400;-70
2023/04/14 14:49:41;;;;;;;13.80;7.40;;;;;;;17.42;51.45;98664.74;217319;1258;139408;-68
2023/04/14 14:55:02;;;;;;;11.40;8.60;;;;;;;17.31;51.43;98669.54;217216;1259;139886;-67
2023/04/14 15:00:06;;;;;;;8.30;7.30;;;;;;;17.28;51.85;98664.91;217715;1259;139408;-68
2023/04/14 15:05:08;;;;;;;8.80;8.00;;;;;;;17.29;51.86;98666.95;219042;1257;140822;-68
2023/04/14 15:10:11;;;;;;;9.50;8.20;;;;;;;17.21;51.97;98663.90;217384;1257;138869;-68
2023/04/14 15:15:13;;;;;;;7.90;7.10;;;;;;;17.09;51.86;98669.48;217286;1257;140073;-70
2023/04/14 15:20:16;;;;;;;14.70;6.80;;;;;;;17.00;51.95;98675.13;217273;1257;141202;-68
2023/04/14 15:25:18;;;;;;;8.10;7.30;;;;;;;16.87;52.16;98673.08;217258;1258;138631;-70
2023/04/14 15:30:22;;;;;;;9.60;7.50;;;;;;;16.78;52.55;98676.39;217363;1259;139290;-70
2023/04/14 15:35:27;;;;;;;;;;;;;;;16.68;52.61;98673.05;217385;1262;139346;-73
2023/04/14 15:40:31;;;;;;;8.70;7.50;;;;;;;16.52;52.96;98680.44;218076;1257;126559;-69
2023/04/14 15:45:33;;;;;;;7.40;6.00;;;;;;;16.40;53.35;98676.42;220190;1258;138839;-71
2023/04/14 15:50:36;;;;;;;7.90;5.70;;;;;;;16.32;53.40;98680.45;218242;1258;139918;-68
2023/04/14 15:55:50;;;;;;;7.90;6.70;;;;;;;16.25;53.58;98681.13;217306;1258;139993;-67
2023/04/14 16:00:53;;;;;;;7.10;6.40;;;;;;;16.13;53.86;98678.30;217319;1260;139175;-70
2023/04/14 16:06:02;;;;;;;5.60;5.10;;;;;;;16.02;53.92;98682.45;217332;1258;139157;-69
2023/04/14 16:11:06;;;;;;;7.40;5.60;;;;;;;15.94;54.12;98684.21;217502;1259;140608;-68
2023/04/14 16:16:14;;;;;;;7.50;5.90;;;;;;;15.81;54.45;98685.29;217373;1260;139871;-71
2023/04/14 16:21:17;;;;;;;5.40;4.70;;;;;;;15.68;54.70;98687.48;217419;1257;140058;-66
2023/04/14 16:26:22;;;;;;;7.40;5.80;;;;;;;15.58;54.76;98696.84;217479;1258;138632;-68
2023/04/14 16:31:27;;;;;;;5.60;5.00;;;;;;;15.48;54.95;98691.92;217775;1260;139555;-71
2023/04/14 16:36:32;;;;;;;11.50;8.20;;;;;;;15.38;55.21;98698.17;218145;1257;141436;-67
2023/04/14 16:41:35;;;;;;;5.50;5.00;;;;;;;15.29;55.44;98700.29;217429;1262;139267;-69
2023/04/14 16:46:38;;;;;;;5.70;5.20;;;;;;;15.20;55.78;98698.19;218151;1259;139014;-72
2023/04/14 16:51:41;;;;;;;7.10;5.30;;;;;;;15.08;56.09;98695.22;217387;1258;139244;-69
2023/04/14 16:56:44;;;;;;;5.70;4.60;;;;;;;14.97;56.22;98696.61;217313;1261;138788;-70
2023/04/14 17:01:47;;;;;;;7.30;4.40;;;;;;;14.85;56.61;98702.55;217085;1262;139127;-76
2023/04/14 17:06:50;;;;;;;5.00;4.50;;;;;;;14.73;57.11;98700.23;217272;1258;138821;-72
2023/04/14 17:11:54;;;;;;;5.70;4.20;;;;;;;14.62;57.29;98702.14;217376;1262;139834;-75
2023/04/14 17:16:57;;;;;;;7.40;6.70;;;;;;;14.49;57.64;98703.63;217319;1262;139974;-71
2023/04/14 17:22:01;;;;;;;12.30;7.50;;;;;;;14.37;57.87;98709.41;217845;1262;139874;-70
2023/04/14 17:27:04;;;;;;;10.30;6.20;;;;;;;14.27;58.13;98710.05;217085;1258;139345;-71
2023/04/14 17:32:09;;;;;;;11.20;7.60;;;;;;;14.16;58.48;98718.50;217464;1260;139958;-71
2023/04/14 17:37:13;;;;;;;13.10;7.10;;;;;;;14.04;58.76;98717.94;218358;1262;139580;-71
2023/04/14 17:42:17;;;;;;;7.60;6.10;;;;;;;13.92;59.02;98721.58;217497;1259;139342;-71
2023/04/14 17:47:20;;;;;;;6.20;5.50;;;;;;;13.82;59.36;98724.48;219558;1262;139696;-72
2023/04/14 17:52:24;;;;;;;9.60;5.60;;;;;;;13.73;59.74;98731.80;218705;1262;140420;-69
2023/04/14 17:57:27;;;;;;;7.90;5.70;;;;;;;13.66;59.84;98734.69;217105;1256;140089;-72
2023/04/14 18:02:34;;;;;;;8.00;6.50;;;;;;;13.58;60.18;98738.77;217888;1261;139587;-71
2023/04/14 18:07:44;;;;;;;12.60;7.00;;;;;;;13.49;60.38;98739.78;217823;1262;140914;-71
2023/04/14 18:12:48;;;;;;;8.50;6.40;;;;;;;13.40;60.74;98742.20;217565;1258;141232;-71
2023/04/14 18:17:50;;;;;;;23.20;13.70;;;;;;;13.33;60.89;98745.56;217291;1260;139519;-71
2023/04/14 18:22:53;;;;;;;6.00;5.10;;;;;;;13.26;61.22;98753.08;217442;1260;140172;-71
2023/04/14 18:27:56;;;;;;;8.80;6.90;;;;;;;13.17;61.24;98769.60;217271;1259;140282;-70
2023/04/14 18:33:02;;;;;;;10.50;5.90;;;;;;;13.09;61.47;98766.58;217388;1262;210236;-72
2023/04/14 18:38:05;;;;;;;11.10;6.60;;;;;;;13.00;61.50;98775.50;217695;1262;139804;-71
2023/04/14 18:43:07;;;;;;;14.90;5.80;;;;;;;12.91;61.80;98778.30;217894;1262;140865;-69
2023/04/14 18:48:10;;;;;;;12.50;7.90;;;;;;;12.82;61.99;98772.95;218182;1258;140777;-70
2023/04/14 18:53:13;;;;;;;8.50;5.80;;;;;;;12.74;62.40;98779.27;217646;1260;139855;-70
2023/04/14 18:58:18;;;;;;;6.20;5.30;;;;;;;12.64;62.46;98776.02;217759;1260;139696;-70
2023/04/14 19:03:22;;;;;;;9.30;5.70;;;;;;;12.56;62.73;98789.04;217723;1261;140102;-69
2023/04/14 19:08:25;;;;;;;8.80;4.90;;;;;;;12.47;63.31;98798.10;217610;1258;140257;-69
2023/04/14 19:13:28;;;;;;;8.40;6.30;;;;;;;12.38;63.48;98795.22;218172;1260;140906;-70
2023/04/14 19:18:33;;;;;;;5.60;4.40;;;;;;;12.31;63.65;98802.39;218761;1257;141351;-69
2023/04/14 19:23:37;;;;;;;5.70;5.20;;;;;;;12.24;64.00;98799.73;217705;1257;139921;-69
2023/04/14 19:28:41;;;;;;;5.30;4.70;;;;;;;12.17;64.10;98801.02;219066;1260;139515;-69
2023/04/14 19:33:44;;;;;;;5.60;5.00;;;;;;;12.10;64.48;98798.50;217866;1259;141795;-71
2023/04/14 19:38:48;;;;;;;5.70;4.90;;;;;;;12.02;64.39;98809.55;217303;1261;140039;-70
2023/04/14 19:43:51;;;;;;;5.30;4.80;;;;;;;11.93;64.78;98808.20;220127;1258;140775;-70
2023/04/14 19:48:53;;;;;;;5.60;4.20;;;;;;;11.87;64.76;98814.25;219010;1259;140143;-70
2023/04/14 19:53:56;;;;;;;9.00;6.30;;;;;;;11.79;64.89;98819.30;217782;1260;139439;-70
2023/04/14 19:58:59;;;;;;;9.10;7.00;;;;;;;11.73;64.99;98821.23;217209;1258;139804;-69
2023/04/14 20:04:03;;;;;;;11.00;6.10;;;;;;;11.66;65.19;98818.48;217859;1258;139619;-69
2023/04/14 20:09:14;;;;;;;5.90;5.30;;;;;;;11.58;65.53;98825.27;217371;1257;140546;-69
2023/04/14 20:14:19;;;;;;;8.10;6.60;;;;;;;11.48;65.64;98818.56;218392;1262;140333;-70
2023/04/14 20:19:22;;;;;;;7.10;6.20;;;;;;;11.40;65.99;98810.73;217510;1262;139704;-70
2023/04/14 20:24:25;;;;;;;7.80;6.20;;;;;;;11.33;66.23;98806.88;217605;1257;140288;-70
2023/04/14 20:29:27;;;;;;;10.20;5.70;;;;;;;11.22;66.38;98809.52;217167;1262;141126;-70
2023/04/14 20:34:29;;;;;;;8.70;6.60;;;;;;;11.12;66.59;98807.66;217390;1260;139490;-69
2023/04/14 20:39:32;;;;;;;8.70;7.10;;;;;;;11.03;66.73;98806.98;217593;1262;140264;-70
2023/04/14 20:44:36;;;;;;;10.70;7.30;;;;;;;10.93;67.14;98807.05;217292;1262;139956;-69
2023/04/14 20:49:38;;;;;;;10.00;7.10;;;;;;;10.87;67.42;98805.10;217584;1262;141997;-69
2023/04/14 20:54:40;;;;;;;9.00;5.80;;;;;;;10.82;67.59;98798.50;217495;1259;140234;-69
2023/04/14 20:59:43;;;;;;;10.00;5.50;;;;;;;10.77;67.76;98799.60;217118;1262;140573;-68
2023/04/14 21:04:45;;;;;;;9.70;6.20;;;;;;;10.72;68.02;98797.95;218132;1262;139987;-70
2023/04/14 21:09:48;;;;;;;11.40;6.00;;;;;;;10.69;68.15;98796.85;217206;1262;140037;-69
2023/04/14 21:14:50;;;;;;;9.20;5.20;;;;;;;10.67;68.26;98799.13;217285;1258;139766;-69
2023/04/14 21:20:13;;;;;;;10.40;7.70;;;;;;;10.62;68.28;98799.04;217322;1258;140712;-70
2023/04/14 21:25:15;;;;;;;6.60;5.50;;;;;;;10.60;68.61;98804.47;217358;1260;140875;-70
2023/04/14 21:30:17;;;;;;;9.90;5.60;;;;;;;10.58;68.71;98803.50;217633;1258;139687;-70
2023/04/14 21:35:19;;;;;;;6.70;5.10;;;;;;;10.56;68.78;98800.55;217394;1260;139841;-69
2023/04/14 21:40:22;;;;;;;8.80;6.00;;;;;;;10.56;68.99;98805.40;217404;1260;140742;-70
2023/04/14 21:45:25;;;;;;;8.30;5.50;;;;;;;10.57;69.04;98808.02;217386;1262;140749;-70
2023/04/14 21:50:28;;;;;;;7.20;5.70;;;;;;;10.58;69.03;98810.05;217639;1256;139621;-69
2023/04/14 21:55:32;;;;;;;6.40;5.40;;;;;;;10.59;69.06;98809.52;217318;1262;140271;-69
2023/04/14 22:00:35;;;;;;;8.10;5.60;;;;;;;10.59;69.05;98809.41;217409;1262;140283;-70
2023/04/14 22:05:39;;;;;;;8.60;5.40;;;;;;;10.58;69.24;98810.53;217246;1259;140169;-70
2023/04/14 22:10:46;;;;;;;5.60;5.00;;;;;;;10.59;69.10;98807.06;217261;1259;141273;-70
2023/04/14 22:15:50;;;;;;;7.60;5.80;;;;;;;10.57;69.22;98803.11;217038;1262;140644;-69
2023/04/14 22:20:53;;;;;;;8.50;6.30;;;;;;;10.54;69.37;98804.75;217290;1260;141636;-70
2023/04/14 22:25:55;;;;;;;9.70;5.80;;;;;;;10.53;69.42;98803.45;218324;1257;140537;-70
2023/04/14 22:30:58;;;;;;;6.60;5.10;;;;;;;10.50;69.40;98800.71;217427;1262;140226;-70
2023/04/14 22:36:03;;;;;;;6.70;6.00;;;;;;;10.47;69.38;98798.72;217407;1259;139911;-70
2023/04/14 22:41:05;;;;;;;8.00;5.80;;;;;;;10.44;69.68;98799.71;217279;1259;140109;-71
2023/04/14 22:46:07;;;;;;;7.10;5.70;;;;;;;10.41;69.60;98793.73;217288;1262;139930;-70
2023/04/14 22:51:11;;;;;;;12.00;5.40;;;;;;;10.40;69.70;98797.51;217211;1259;140385;-70
2023/04/14 22:56:13;;;;;;;8.00;6.80;;;;;;;10.38;69.69;98796.23;217269;1262;140160;-70
2023/04/14 23:01:16;;;;;;;7.20;5.90;;;;;;;10.38;70.00;98797.08;217394;1262;139857;-70
2023/04/14 23:06:24;;;;;;;7.60;5.50;;;;;;;10.35;70.00;98794.73;217227;1263;139875;-70
2023/04/14 23:11:27;;;;;;;8.50;6.20;;;;;;;10.33;70.15;98787.92;217417;1262;140174;-70
2023/04/14 23:16:30;;;;;;;7.30;6.60;;;;;;;10.31;70.22;98787.17;217248;1257;140330;-68